sensor_id;sensor_type;location;lat;lon;timestamp;P1;durP1;ratioP1;P2;durP2;ratioP2
4397;SDS011;2213;49.720;7.296;2022-12-18T00:01:40;17.75;;;6.55;;
4397;SDS011;2213;49.720;7.296;2022-12-18T00:04:15;10.57;;;5.75;;
4397;SDS011;2213;49.720;7.296;2022-12-18T00:06:50;13.00;;;6.00;;
4397;SDS011;2213;49.720;7.296;2022-12-18T00:09:23;6.47;;;4.80;;
4397;SDS011;2213;49.720;7.296;2022-12-18T00:12:07;11.02;;;5.00;;
4397;SDS011;2213;49.720;7.296;2022-12-18T00:14:41;17.45;;;5.75;;
4397;SDS011;2213;49.720;7.296;2022-12-18T00:17:12;11.00;;;5.90;;
4397;SDS011;2213;49.720;7.296;2022-12-18T00:19:42;16.05;;;5.60;;
4397;SDS011;2213;49.720;7.296;2022-12-18T00:22:12;12.43;;;6.03;;
4397;SDS011;2213;49.720;7.296;2022-12-18T00:24:43;16.23;;;7.00;;
4397;SDS011;2213;49.720;7.296;2022-12-18T00:27:14;13.75;;;5.45;;
4397;SDS011;2213;49.720;7.296;2022-12-18T00:29:44;16.45;;;5.82;;
4397;SDS011;2213;49.720;7.296;2022-12-18T00:32:16;15.40;;;6.25;;
4397;SDS011;2213;49.720;7.296;2022-12-18T00:34:46;11.75;;;5.90;;
4397;SDS011;2213;49.720;7.296;2022-12-18T00:37:16;14.05;;;6.10;;
4397;SDS011;2213;49.720;7.296;2022-12-18T00:39:49;29.10;;;7.45;;
4397;SDS011;2213;49.720;7.296;2022-12-18T00:42:20;12.20;;;6.70;;
4397;SDS011;2213;49.720;7.296;2022-12-18T00:45:07;14.00;;;6.65;;
4397;SDS011;2213;49.720;7.296;2022-12-18T00:47:39;11.68;;;7.10;;
4397;SDS011;2213;49.720;7.296;2022-12-18T00:50:09;11.27;;;6.22;;
4397;SDS011;2213;49.720;7.296;2022-12-18T00:52:40;15.68;;;6.75;;
4397;SDS011;2213;49.720;7.296;2022-12-18T00:55:11;14.25;;;6.13;;
4397;SDS011;2213;49.720;7.296;2022-12-18T00:57:43;13.65;;;6.70;;
4397;SDS011;2213;49.720;7.296;2022-12-18T01:00:16;7.28;;;5.10;;
4397;SDS011;2213;49.720;7.296;2022-12-18T01:02:46;12.73;;;5.70;;
4397;SDS011;2213;49.720;7.296;2022-12-18T01:05:15;14.43;;;6.90;;
4397;SDS011;2213;49.720;7.296;2022-12-18T01:07:46;11.32;;;5.95;;
4397;SDS011;2213;49.720;7.296;2022-12-18T01:10:15;11.27;;;6.32;;
4397;SDS011;2213;49.720;7.296;2022-12-18T01:12:46;15.75;;;6.35;;
4397;SDS011;2213;49.720;7.296;2022-12-18T01:15:16;14.00;;;6.35;;
4397;SDS011;2213;49.720;7.296;2022-12-18T01:17:46;16.00;;;7.07;;
4397;SDS011;2213;49.720;7.296;2022-12-18T01:20:16;13.38;;;6.38;;
4397;SDS011;2213;49.720;7.296;2022-12-18T01:22:45;8.13;;;5.28;;
4397;SDS011;2213;49.720;7.296;2022-12-18T01:25:15;14.82;;;6.80;;
4397;SDS011;2213;49.720;7.296;2022-12-18T01:27:47;8.07;;;4.75;;
4397;SDS011;2213;49.720;7.296;2022-12-18T01:30:18;14.35;;;5.43;;
4397;SDS011;2213;49.720;7.296;2022-12-18T01:32:48;15.13;;;6.82;;
4397;SDS011;2213;49.720;7.296;2022-12-18T01:35:19;17.35;;;6.30;;
4397;SDS011;2213;49.720;7.296;2022-12-18T01:37:49;11.50;;;6.15;;
4397;SDS011;2213;49.720;7.296;2022-12-18T01:40:23;15.70;;;6.72;;
4397;SDS011;2213;49.720;7.296;2022-12-18T01:42:55;16.65;;;6.93;;
4397;SDS011;2213;49.720;7.296;2022-12-18T01:45:26;12.38;;;6.55;;
4397;SDS011;2213;49.720;7.296;2022-12-18T01:47:58;6.78;;;5.05;;
4397;SDS011;2213;49.720;7.296;2022-12-18T01:50:32;14.15;;;7.38;;
4397;SDS011;2213;49.720;7.296;2022-12-18T01:53:06;12.95;;;5.63;;
4397;SDS011;2213;49.720;7.296;2022-12-18T01:55:43;9.45;;;5.72;;
4397;SDS011;2213;49.720;7.296;2022-12-18T01:58:18;9.98;;;5.57;;
4397;SDS011;2213;49.720;7.296;2022-12-18T02:00:52;19.02;;;6.03;;
4397;SDS011;2213;49.720;7.296;2022-12-18T02:03:26;13.15;;;7.22;;
4397;SDS011;2213;49.720;7.296;2022-12-18T02:05:57;8.85;;;5.57;;
4397;SDS011;2213;49.720;7.296;2022-12-18T02:08:40;8.98;;;5.05;;
4397;SDS011;2213;49.720;7.296;2022-12-18T02:11:21;11.32;;;6.38;;
4397;SDS011;2213;49.720;7.296;2022-12-18T02:14:11;9.38;;;5.90;;
4397;SDS011;2213;49.720;7.296;2022-12-18T02:16:55;10.98;;;5.50;;
4397;SDS011;2213;49.720;7.296;2022-12-18T02:19:44;11.43;;;6.72;;
4397;SDS011;2213;49.720;7.296;2022-12-18T02:22:34;9.57;;;5.53;;
4397;SDS011;2213;49.720;7.296;2022-12-18T02:25:26;11.57;;;5.88;;
4397;SDS011;2213;49.720;7.296;2022-12-18T02:28:16;12.27;;;6.15;;
4397;SDS011;2213;49.720;7.296;2022-12-18T02:30:51;9.23;;;5.03;;
4397;SDS011;2213;49.720;7.296;2022-12-18T02:33:28;12.43;;;5.13;;
4397;SDS011;2213;49.720;7.296;2022-12-18T02:36:02;10.25;;;5.05;;
4397;SDS011;2213;49.720;7.296;2022-12-18T02:38:34;10.32;;;6.22;;
4397;SDS011;2213;49.720;7.296;2022-12-18T02:41:05;11.73;;;6.97;;
4397;SDS011;2213;49.720;7.296;2022-12-18T02:43:37;12.43;;;6.70;;
4397;SDS011;2213;49.720;7.296;2022-12-18T02:46:26;9.27;;;5.32;;
4397;SDS011;2213;49.720;7.296;2022-12-18T02:49:11;17.58;;;6.60;;
4397;SDS011;2213;49.720;7.296;2022-12-18T02:51:59;9.23;;;5.38;;
4397;SDS011;2213;49.720;7.296;2022-12-18T02:54:48;9.85;;;5.22;;
4397;SDS011;2213;49.720;7.296;2022-12-18T02:58:09;12.25;;;7.28;;
4397;SDS011;2213;49.720;7.296;2022-12-18T03:00:48;12.05;;;3.95;;
4397;SDS011;2213;49.720;7.296;2022-12-18T03:03:29;10.05;;;4.75;;
4397;SDS011;2213;49.720;7.296;2022-12-18T03:06:06;17.90;;;4.57;;
4397;SDS011;2213;49.720;7.296;2022-12-18T03:08:47;19.20;;;6.70;;
4397;SDS011;2213;49.720;7.296;2022-12-18T03:11:30;9.25;;;5.50;;
4397;SDS011;2213;49.720;7.296;2022-12-18T03:14:41;9.57;;;4.80;;
4397;SDS011;2213;49.720;7.296;2022-12-18T03:17:18;12.05;;;5.85;;
4397;SDS011;2213;49.720;7.296;2022-12-18T03:19:50;13.63;;;6.03;;
4397;SDS011;2213;49.720;7.296;2022-12-18T03:22:26;23.20;;;4.82;;
4397;SDS011;2213;49.720;7.296;2022-12-18T03:25:03;11.70;;;5.45;;
4397;SDS011;2213;49.720;7.296;2022-12-18T03:27:38;12.30;;;4.78;;
4397;SDS011;2213;49.720;7.296;2022-12-18T03:30:15;10.27;;;5.57;;
4397;SDS011;2213;49.720;7.296;2022-12-18T03:32:50;13.05;;;6.07;;
4397;SDS011;2213;49.720;7.296;2022-12-18T03:35:30;15.60;;;6.72;;
4397;SDS011;2213;49.720;7.296;2022-12-18T03:38:08;11.48;;;4.82;;
4397;SDS011;2213;49.720;7.296;2022-12-18T03:40:53;20.00;;;6.53;;
4397;SDS011;2213;49.720;7.296;2022-12-18T03:43:34;9.98;;;6.70;;
4397;SDS011;2213;49.720;7.296;2022-12-18T03:46:22;10.50;;;4.63;;
4397;SDS011;2213;49.720;7.296;2022-12-18T03:49:01;12.20;;;5.28;;
4397;SDS011;2213;49.720;7.296;2022-12-18T03:51:40;10.82;;;6.07;;
4397;SDS011;2213;49.720;7.296;2022-12-18T03:54:18;10.52;;;5.55;;
4397;SDS011;2213;49.720;7.296;2022-12-18T03:56:50;22.00;;;7.22;;
4397;SDS011;2213;49.720;7.296;2022-12-18T03:59:27;12.25;;;5.75;;
4397;SDS011;2213;49.720;7.296;2022-12-18T04:01:59;18.70;;;5.85;;
4397;SDS011;2213;49.720;7.296;2022-12-18T04:04:35;13.85;;;5.50;;
4397;SDS011;2213;49.720;7.296;2022-12-18T04:07:06;15.00;;;6.13;;
4397;SDS011;2213;49.720;7.296;2022-12-18T04:09:37;11.23;;;5.55;;
4397;SDS011;2213;49.720;7.296;2022-12-18T04:12:10;8.93;;;5.55;;
4397;SDS011;2213;49.720;7.296;2022-12-18T04:14:40;10.88;;;5.05;;
4397;SDS011;2213;49.720;7.296;2022-12-18T04:17:11;16.58;;;6.00;;
4397;SDS011;2213;49.720;7.296;2022-12-18T04:19:41;8.70;;;5.25;;
4397;SDS011;2213;49.720;7.296;2022-12-18T04:22:11;10.10;;;5.32;;
4397;SDS011;2213;49.720;7.296;2022-12-18T04:24:41;12.10;;;7.05;;
4397;SDS011;2213;49.720;7.296;2022-12-18T04:27:11;9.48;;;6.03;;
4397;SDS011;2213;49.720;7.296;2022-12-18T04:29:41;8.70;;;5.40;;
4397;SDS011;2213;49.720;7.296;2022-12-18T04:32:13;10.07;;;5.85;;
4397;SDS011;2213;49.720;7.296;2022-12-18T04:34:46;9.88;;;5.80;;
4397;SDS011;2213;49.720;7.296;2022-12-18T04:37:16;18.67;;;5.93;;
4397;SDS011;2213;49.720;7.296;2022-12-18T04:39:45;8.63;;;4.82;;
4397;SDS011;2213;49.720;7.296;2022-12-18T04:42:15;15.40;;;5.78;;
4397;SDS011;2213;49.720;7.296;2022-12-18T04:44:45;9.35;;;5.97;;
4397;SDS011;2213;49.720;7.296;2022-12-18T04:47:16;8.10;;;5.75;;
4397;SDS011;2213;49.720;7.296;2022-12-18T04:49:47;14.48;;;4.50;;
4397;SDS011;2213;49.720;7.296;2022-12-18T04:52:17;13.25;;;4.78;;
4397;SDS011;2213;49.720;7.296;2022-12-18T04:54:51;12.02;;;5.18;;
4397;SDS011;2213;49.720;7.296;2022-12-18T04:57:21;10.07;;;5.13;;
4397;SDS011;2213;49.720;7.296;2022-12-18T04:59:52;10.45;;;5.70;;
4397;SDS011;2213;49.720;7.296;2022-12-18T05:02:22;7.25;;;5.32;;
4397;SDS011;2213;49.720;7.296;2022-12-18T05:04:52;10.35;;;4.50;;
4397;SDS011;2213;49.720;7.296;2022-12-18T05:07:22;9.77;;;5.80;;
4397;SDS011;2213;49.720;7.296;2022-12-18T05:09:52;11.32;;;7.20;;
4397;SDS011;2213;49.720;7.296;2022-12-18T05:12:22;8.05;;;5.20;;
4397;SDS011;2213;49.720;7.296;2022-12-18T05:14:51;10.40;;;5.13;;
4397;SDS011;2213;49.720;7.296;2022-12-18T05:17:21;10.98;;;6.25;;
4397;SDS011;2213;49.720;7.296;2022-12-18T05:19:50;7.43;;;4.75;;
4397;SDS011;2213;49.720;7.296;2022-12-18T05:22:21;10.95;;;4.40;;
4397;SDS011;2213;49.720;7.296;2022-12-18T05:24:51;6.03;;;4.55;;
4397;SDS011;2213;49.720;7.296;2022-12-18T05:27:21;8.18;;;4.50;;
4397;SDS011;2213;49.720;7.296;2022-12-18T05:29:52;7.00;;;4.00;;
4397;SDS011;2213;49.720;7.296;2022-12-18T05:32:23;19.10;;;5.43;;
4397;SDS011;2213;49.720;7.296;2022-12-18T05:34:53;8.77;;;4.47;;
4397;SDS011;2213;49.720;7.296;2022-12-18T05:37:24;12.02;;;4.53;;
4397;SDS011;2213;49.720;7.296;2022-12-18T05:39:53;9.98;;;5.18;;
4397;SDS011;2213;49.720;7.296;2022-12-18T05:42:23;7.43;;;5.20;;
4397;SDS011;2213;49.720;7.296;2022-12-18T05:44:53;9.20;;;4.00;;
4397;SDS011;2213;49.720;7.296;2022-12-18T05:47:22;10.27;;;4.22;;
4397;SDS011;2213;49.720;7.296;2022-12-18T05:49:54;4.35;;;2.60;;
4397;SDS011;2213;49.720;7.296;2022-12-18T05:52:24;8.07;;;4.15;;
4397;SDS011;2213;49.720;7.296;2022-12-18T05:54:53;7.90;;;3.88;;
4397;SDS011;2213;49.720;7.296;2022-12-18T05:57:26;10.80;;;4.57;;
4397;SDS011;2213;49.720;7.296;2022-12-18T05:59:56;6.32;;;4.35;;
4397;SDS011;2213;49.720;7.296;2022-12-18T06:02:26;7.70;;;4.43;;
4397;SDS011;2213;49.720;7.296;2022-12-18T06:04:58;9.48;;;4.65;;
4397;SDS011;2213;49.720;7.296;2022-12-18T06:07:28;4.85;;;3.92;;
4397;SDS011;2213;49.720;7.296;2022-12-18T06:09:59;7.03;;;4.13;;
4397;SDS011;2213;49.720;7.296;2022-12-18T06:12:29;9.50;;;4.90;;
4397;SDS011;2213;49.720;7.296;2022-12-18T06:15:00;10.82;;;4.90;;
4397;SDS011;2213;49.720;7.296;2022-12-18T06:17:30;5.15;;;3.53;;
4397;SDS011;2213;49.720;7.296;2022-12-18T06:20:01;7.40;;;4.25;;
4397;SDS011;2213;49.720;7.296;2022-12-18T06:22:33;10.52;;;4.57;;
4397;SDS011;2213;49.720;7.296;2022-12-18T06:25:04;6.85;;;4.65;;
4397;SDS011;2213;49.720;7.296;2022-12-18T06:27:36;9.65;;;3.65;;
4397;SDS011;2213;49.720;7.296;2022-12-18T06:30:09;6.65;;;3.63;;
4397;SDS011;2213;49.720;7.296;2022-12-18T06:32:42;8.68;;;4.10;;
4397;SDS011;2213;49.720;7.296;2022-12-18T06:35:23;7.55;;;4.22;;
4397;SDS011;2213;49.720;7.296;2022-12-18T06:37:53;4.72;;;3.50;;
4397;SDS011;2213;49.720;7.296;2022-12-18T06:40:22;8.07;;;3.97;;
4397;SDS011;2213;49.720;7.296;2022-12-18T06:42:52;7.22;;;4.15;;
4397;SDS011;2213;49.720;7.296;2022-12-18T06:45:22;10.70;;;4.50;;
4397;SDS011;2213;49.720;7.296;2022-12-18T06:47:53;9.80;;;4.25;;
4397;SDS011;2213;49.720;7.296;2022-12-18T06:50:26;10.73;;;4.60;;
4397;SDS011;2213;49.720;7.296;2022-12-18T06:52:56;7.53;;;4.05;;
4397;SDS011;2213;49.720;7.296;2022-12-18T06:55:26;10.77;;;4.32;;
4397;SDS011;2213;49.720;7.296;2022-12-18T06:57:57;11.63;;;4.38;;
4397;SDS011;2213;49.720;7.296;2022-12-18T07:00:27;7.88;;;3.90;;
4397;SDS011;2213;49.720;7.296;2022-12-18T07:02:56;6.65;;;3.67;;
4397;SDS011;2213;49.720;7.296;2022-12-18T07:05:27;8.80;;;3.78;;
4397;SDS011;2213;49.720;7.296;2022-12-18T07:07:57;8.25;;;4.40;;
4397;SDS011;2213;49.720;7.296;2022-12-18T07:10:27;5.63;;;3.95;;
4397;SDS011;2213;49.720;7.296;2022-12-18T07:12:58;6.57;;;4.95;;
4397;SDS011;2213;49.720;7.296;2022-12-18T07:15:27;9.60;;;4.03;;
4397;SDS011;2213;49.720;7.296;2022-12-18T07:17:57;7.30;;;4.88;;
4397;SDS011;2213;49.720;7.296;2022-12-18T07:20:28;5.07;;;3.85;;
4397;SDS011;2213;49.720;7.296;2022-12-18T07:23:01;9.93;;;4.78;;
4397;SDS011;2213;49.720;7.296;2022-12-18T07:25:33;7.70;;;4.30;;
4397;SDS011;2213;49.720;7.296;2022-12-18T07:28:03;7.50;;;3.88;;
4397;SDS011;2213;49.720;7.296;2022-12-18T07:30:37;8.63;;;4.57;;
4397;SDS011;2213;49.720;7.296;2022-12-18T07:33:07;7.95;;;4.07;;
4397;SDS011;2213;49.720;7.296;2022-12-18T07:35:44;7.22;;;5.10;;
4397;SDS011;2213;49.720;7.296;2022-12-18T07:38:14;10.27;;;4.25;;
4397;SDS011;2213;49.720;7.296;2022-12-18T07:40:44;7.28;;;4.57;;
4397;SDS011;2213;49.720;7.296;2022-12-18T07:43:13;5.53;;;4.05;;
4397;SDS011;2213;49.720;7.296;2022-12-18T07:45:45;9.88;;;5.05;;
4397;SDS011;2213;49.720;7.296;2022-12-18T07:48:17;6.55;;;3.42;;
4397;SDS011;2213;49.720;7.296;2022-12-18T07:50:49;9.07;;;5.32;;
4397;SDS011;2213;49.720;7.296;2022-12-18T07:53:17;8.70;;;5.60;;
4397;SDS011;2213;49.720;7.296;2022-12-18T07:55:47;9.40;;;4.65;;
4397;SDS011;2213;49.720;7.296;2022-12-18T07:58:43;11.20;;;3.88;;
4397;SDS011;2213;49.720;7.296;2022-12-18T08:01:14;6.38;;;4.35;;
4397;SDS011;2213;49.720;7.296;2022-12-18T08:03:44;8.32;;;4.60;;
4397;SDS011;2213;49.720;7.296;2022-12-18T08:06:17;7.00;;;4.95;;
4397;SDS011;2213;49.720;7.296;2022-12-18T08:08:50;10.18;;;5.75;;
4397;SDS011;2213;49.720;7.296;2022-12-18T08:11:21;14.57;;;6.45;;
4397;SDS011;2213;49.720;7.296;2022-12-18T08:13:53;7.82;;;4.38;;
4397;SDS011;2213;49.720;7.296;2022-12-18T08:16:23;6.72;;;4.13;;
4397;SDS011;2213;49.720;7.296;2022-12-18T08:18:54;6.28;;;4.35;;
4397;SDS011;2213;49.720;7.296;2022-12-18T08:21:26;8.48;;;5.30;;
4397;SDS011;2213;49.720;7.296;2022-12-18T08:23:58;12.32;;;5.10;;
4397;SDS011;2213;49.720;7.296;2022-12-18T08:26:29;11.18;;;4.60;;
4397;SDS011;2213;49.720;7.296;2022-12-18T08:28:59;6.77;;;4.80;;
4397;SDS011;2213;49.720;7.296;2022-12-18T08:31:30;11.85;;;5.50;;
4397;SDS011;2213;49.720;7.296;2022-12-18T08:34:00;7.72;;;4.85;;
4397;SDS011;2213;49.720;7.296;2022-12-18T08:36:31;6.65;;;4.65;;
4397;SDS011;2213;49.720;7.296;2022-12-18T08:39:01;13.00;;;5.90;;
4397;SDS011;2213;49.720;7.296;2022-12-18T08:41:32;6.85;;;5.10;;
4397;SDS011;2213;49.720;7.296;2022-12-18T08:44:04;11.82;;;5.30;;
4397;SDS011;2213;49.720;7.296;2022-12-18T08:46:52;8.30;;;5.03;;
4397;SDS011;2213;49.720;7.296;2022-12-18T08:49:22;11.68;;;5.95;;
4397;SDS011;2213;49.720;7.296;2022-12-18T08:51:55;5.85;;;4.53;;
4397;SDS011;2213;49.720;7.296;2022-12-18T08:54:26;7.93;;;4.57;;
4397;SDS011;2213;49.720;7.296;2022-12-18T08:56:58;12.10;;;5.63;;
4397;SDS011;2213;49.720;7.296;2022-12-18T08:59:27;12.10;;;6.10;;
4397;SDS011;2213;49.720;7.296;2022-12-18T09:01:59;15.60;;;5.10;;
4397;SDS011;2213;49.720;7.296;2022-12-18T09:04:30;11.77;;;6.33;;
4397;SDS011;2213;49.720;7.296;2022-12-18T09:07:02;12.77;;;6.20;;
4397;SDS011;2213;49.720;7.296;2022-12-18T09:09:31;12.00;;;5.90;;
4397;SDS011;2213;49.720;7.296;2022-12-18T09:12:02;15.30;;;6.33;;
4397;SDS011;2213;49.720;7.296;2022-12-18T09:14:32;10.40;;;6.73;;
4397;SDS011;2213;49.720;7.296;2022-12-18T09:17:03;12.93;;;6.97;;
4397;SDS011;2213;49.720;7.296;2022-12-18T09:19:32;12.53;;;6.80;;
4397;SDS011;2213;49.720;7.296;2022-12-18T09:22:05;13.37;;;6.80;;
4397;SDS011;2213;49.720;7.296;2022-12-18T09:24:34;13.20;;;7.30;;
4397;SDS011;2213;49.720;7.296;2022-12-18T09:27:05;17.10;;;8.13;;
4397;SDS011;2213;49.720;7.296;2022-12-18T09:29:35;15.35;;;8.43;;
4397;SDS011;2213;49.720;7.296;2022-12-18T09:32:06;17.47;;;7.87;;
4397;SDS011;2213;49.720;7.296;2022-12-18T09:34:36;22.17;;;8.67;;
4397;SDS011;2213;49.720;7.296;2022-12-18T09:37:07;15.73;;;7.10;;
4397;SDS011;2213;49.720;7.296;2022-12-18T09:39:38;19.50;;;8.37;;
4397;SDS011;2213;49.720;7.296;2022-12-18T09:42:09;14.30;;;6.90;;
4397;SDS011;2213;49.720;7.296;2022-12-18T09:44:50;16.90;;;7.90;;
4397;SDS011;2213;49.720;7.296;2022-12-18T09:47:23;17.63;;;7.30;;
4397;SDS011;2213;49.720;7.296;2022-12-18T09:49:58;15.73;;;8.03;;
4397;SDS011;2213;49.720;7.296;2022-12-18T09:52:45;25.47;;;10.30;;
4397;SDS011;2213;49.720;7.296;2022-12-18T09:55:22;21.23;;;8.70;;
4397;SDS011;2213;49.720;7.296;2022-12-18T09:58:02;20.30;;;8.00;;
4397;SDS011;2213;49.720;7.296;2022-12-18T10:00:42;14.97;;;7.03;;
4397;SDS011;2213;49.720;7.296;2022-12-18T10:03:13;16.77;;;8.90;;
4397;SDS011;2213;49.720;7.296;2022-12-18T10:05:46;17.00;;;8.20;;
4397;SDS011;2213;49.720;7.296;2022-12-18T10:08:37;24.70;;;9.70;;
4397;SDS011;2213;49.720;7.296;2022-12-18T10:11:25;19.23;;;9.73;;
4397;SDS011;2213;49.720;7.296;2022-12-18T10:14:09;16.17;;;7.80;;
4397;SDS011;2213;49.720;7.296;2022-12-18T10:16:52;21.30;;;9.67;;
4397;SDS011;2213;49.720;7.296;2022-12-18T10:19:37;23.60;;;9.87;;
4397;SDS011;2213;49.720;7.296;2022-12-18T10:22:26;17.67;;;9.43;;
4397;SDS011;2213;49.720;7.296;2022-12-18T10:25:21;18.53;;;8.80;;
4397;SDS011;2213;49.720;7.296;2022-12-18T10:27:55;30.57;;;10.27;;
4397;SDS011;2213;49.720;7.296;2022-12-18T10:30:35;17.97;;;10.30;;
4397;SDS011;2213;49.720;7.296;2022-12-18T10:33:09;20.70;;;9.90;;
4397;SDS011;2213;49.720;7.296;2022-12-18T10:35:43;17.37;;;9.53;;
4397;SDS011;2213;49.720;7.296;2022-12-18T10:38:25;18.37;;;9.50;;
4397;SDS011;2213;49.720;7.296;2022-12-18T10:40:58;17.63;;;9.10;;
4397;SDS011;2213;49.720;7.296;2022-12-18T10:43:30;21.67;;;10.50;;
4397;SDS011;2213;49.720;7.296;2022-12-18T10:46:02;17.53;;;10.43;;
4397;SDS011;2213;49.720;7.296;2022-12-18T10:48:49;19.90;;;9.57;;
4397;SDS011;2213;49.720;7.296;2022-12-18T10:51:23;17.10;;;10.10;;
4397;SDS011;2213;49.720;7.296;2022-12-18T10:53:58;21.87;;;10.90;;
4397;SDS011;2213;49.720;7.296;2022-12-18T10:56:36;18.10;;;10.17;;
4397;SDS011;2213;49.720;7.296;2022-12-18T10:59:10;23.27;;;10.67;;
4397;SDS011;2213;49.720;7.296;2022-12-18T11:01:45;18.07;;;10.63;;
4397;SDS011;2213;49.720;7.296;2022-12-18T11:04:19;18.47;;;9.57;;
4397;SDS011;2213;49.720;7.296;2022-12-18T11:06:58;20.97;;;10.17;;
4397;SDS011;2213;49.720;7.296;2022-12-18T11:09:30;19.40;;;9.60;;
4397;SDS011;2213;49.720;7.296;2022-12-18T11:12:04;26.50;;;10.43;;
4397;SDS011;2213;49.720;7.296;2022-12-18T11:14:45;18.90;;;10.63;;
4397;SDS011;2213;49.720;7.296;2022-12-18T11:17:19;20.47;;;11.03;;
4397;SDS011;2213;49.720;7.296;2022-12-18T11:19:52;25.33;;;9.87;;
4397;SDS011;2213;49.720;7.296;2022-12-18T11:22:26;16.93;;;8.53;;
4397;SDS011;2213;49.720;7.296;2022-12-18T11:24:58;26.20;;;12.70;;
4397;SDS011;2213;49.720;7.296;2022-12-18T11:27:54;21.43;;;8.87;;
4397;SDS011;2213;49.720;7.296;2022-12-18T11:30:27;21.27;;;9.33;;
4397;SDS011;2213;49.720;7.296;2022-12-18T11:33:00;25.20;;;11.10;;
4397;SDS011;2213;49.720;7.296;2022-12-18T11:35:37;22.70;;;12.13;;
4397;SDS011;2213;49.720;7.296;2022-12-18T11:38:17;19.70;;;9.17;;
4397;SDS011;2213;49.720;7.296;2022-12-18T11:40:53;18.57;;;8.93;;
4397;SDS011;2213;49.720;7.296;2022-12-18T11:43:34;24.97;;;10.57;;
4397;SDS011;2213;49.720;7.296;2022-12-18T11:46:12;20.70;;;10.87;;
4397;SDS011;2213;49.720;7.296;2022-12-18T11:48:49;21.10;;;9.93;;
4397;SDS011;2213;49.720;7.296;2022-12-18T11:51:28;24.80;;;12.40;;
4397;SDS011;2213;49.720;7.296;2022-12-18T11:54:04;16.50;;;7.07;;
4397;SDS011;2213;49.720;7.296;2022-12-18T11:56:42;26.10;;;12.17;;
4397;SDS011;2213;49.720;7.296;2022-12-18T11:59:22;20.50;;;10.13;;
4397;SDS011;2213;49.720;7.296;2022-12-18T12:02:04;27.90;;;8.67;;
4397;SDS011;2213;49.720;7.296;2022-12-18T12:05:04;20.10;;;10.70;;
4397;SDS011;2213;49.720;7.296;2022-12-18T12:07:55;19.23;;;10.97;;
4397;SDS011;2213;49.720;7.296;2022-12-18T12:10:39;23.97;;;12.70;;
4397;SDS011;2213;49.720;7.296;2022-12-18T12:13:24;22.87;;;10.03;;
4397;SDS011;2213;49.720;7.296;2022-12-18T12:16:20;24.23;;;11.00;;
4397;SDS011;2213;49.720;7.296;2022-12-18T12:19:02;23.20;;;11.40;;
4397;SDS011;2213;49.720;7.296;2022-12-18T12:21:53;21.87;;;11.47;;
4397;SDS011;2213;49.720;7.296;2022-12-18T12:24:45;21.10;;;11.10;;
4397;SDS011;2213;49.720;7.296;2022-12-18T12:27:29;27.43;;;10.70;;
4397;SDS011;2213;49.720;7.296;2022-12-18T12:30:16;24.37;;;11.57;;
4397;SDS011;2213;49.720;7.296;2022-12-18T12:32:55;23.40;;;10.20;;
4397;SDS011;2213;49.720;7.296;2022-12-18T12:35:44;24.90;;;10.97;;
4397;SDS011;2213;49.720;7.296;2022-12-18T12:38:25;26.67;;;11.77;;
4397;SDS011;2213;49.720;7.296;2022-12-18T12:41:02;20.73;;;11.60;;
4397;SDS011;2213;49.720;7.296;2022-12-18T12:43:57;26.93;;;11.20;;
4397;SDS011;2213;49.720;7.296;2022-12-18T12:46:32;24.00;;;12.63;;
4397;SDS011;2213;49.720;7.296;2022-12-18T12:49:11;25.03;;;13.30;;
4397;SDS011;2213;49.720;7.296;2022-12-18T12:51:45;20.63;;;10.93;;
4397;SDS011;2213;49.720;7.296;2022-12-18T12:54:24;23.17;;;12.03;;
4397;SDS011;2213;49.720;7.296;2022-12-18T12:56:57;19.70;;;11.23;;
4397;SDS011;2213;49.720;7.296;2022-12-18T12:59:36;26.57;;;10.97;;
4397;SDS011;2213;49.720;7.296;2022-12-18T13:02:18;21.73;;;10.93;;
4397;SDS011;2213;49.720;7.296;2022-12-18T13:04:59;19.00;;;9.67;;
4397;SDS011;2213;49.720;7.296;2022-12-18T13:07:39;30.70;;;12.17;;
4397;SDS011;2213;49.720;7.296;2022-12-18T13:13:13;19.47;;;10.00;;
4397;SDS011;2213;49.720;7.296;2022-12-18T13:16:04;28.37;;;13.17;;
4397;SDS011;2213;49.720;7.296;2022-12-18T13:18:37;22.77;;;10.93;;
4397;SDS011;2213;49.720;7.296;2022-12-18T13:21:18;27.73;;;13.30;;
4397;SDS011;2213;49.720;7.296;2022-12-18T13:23:53;30.33;;;12.33;;
4397;SDS011;2213;49.720;7.296;2022-12-18T13:26:28;28.97;;;12.17;;
4397;SDS011;2213;49.720;7.296;2022-12-18T13:29:02;26.20;;;10.87;;
4397;SDS011;2213;49.720;7.296;2022-12-18T13:35:03;23.43;;;12.20;;
4397;SDS011;2213;49.720;7.296;2022-12-18T13:38:22;27.67;;;11.50;;
4397;SDS011;2213;49.720;7.296;2022-12-18T13:41:02;22.97;;;11.50;;
4397;SDS011;2213;49.720;7.296;2022-12-18T13:43:53;29.07;;;12.80;;
4397;SDS011;2213;49.720;7.296;2022-12-18T13:46:42;25.13;;;10.67;;
4397;SDS011;2213;49.720;7.296;2022-12-18T13:49:20;23.87;;;11.10;;
4397;SDS011;2213;49.720;7.296;2022-12-18T13:51:54;20.03;;;11.23;;
4397;SDS011;2213;49.720;7.296;2022-12-18T13:54:27;30.70;;;13.80;;
4397;SDS011;2213;49.720;7.296;2022-12-18T13:57:03;26.10;;;11.40;;
4397;SDS011;2213;49.720;7.296;2022-12-18T13:59:54;27.53;;;11.53;;
4397;SDS011;2213;49.720;7.296;2022-12-18T14:02:24;24.53;;;13.30;;
4397;SDS011;2213;49.720;7.296;2022-12-18T14:04:55;23.67;;;10.83;;
4397;SDS011;2213;49.720;7.296;2022-12-18T14:07:28;33.27;;;13.27;;
4397;SDS011;2213;49.720;7.296;2022-12-18T14:10:12;25.30;;;12.50;;
4397;SDS011;2213;49.720;7.296;2022-12-18T14:13:05;24.43;;;11.90;;
4397;SDS011;2213;49.720;7.296;2022-12-18T14:15:40;36.43;;;12.87;;
4397;SDS011;2213;49.720;7.296;2022-12-18T14:18:16;27.40;;;12.13;;
4397;SDS011;2213;49.720;7.296;2022-12-18T14:20:52;37.87;;;13.40;;
4397;SDS011;2213;49.720;7.296;2022-12-18T14:23:28;31.93;;;13.43;;
4397;SDS011;2213;49.720;7.296;2022-12-18T14:26:01;25.13;;;14.20;;
4397;SDS011;2213;49.720;7.296;2022-12-18T14:28:48;31.97;;;13.10;;
4397;SDS011;2213;49.720;7.296;2022-12-18T14:31:21;29.70;;;13.57;;
4397;SDS011;2213;49.720;7.296;2022-12-18T14:33:53;25.70;;;12.97;;
4397;SDS011;2213;49.720;7.296;2022-12-18T14:36:23;25.37;;;12.27;;
4397;SDS011;2213;49.720;7.296;2022-12-18T14:38:56;24.37;;;12.20;;
4397;SDS011;2213;49.720;7.296;2022-12-18T14:41:29;32.17;;;13.17;;
4397;SDS011;2213;49.720;7.296;2022-12-18T14:44:04;24.40;;;12.37;;
4397;SDS011;2213;49.720;7.296;2022-12-18T14:46:42;53.60;;;24.53;;
4397;SDS011;2213;49.720;7.296;2022-12-18T14:49:21;27.47;;;13.20;;
4397;SDS011;2213;49.720;7.296;2022-12-18T14:51:55;32.50;;;12.87;;
4397;SDS011;2213;49.720;7.296;2022-12-18T14:54:29;30.10;;;13.40;;
4397;SDS011;2213;49.720;7.296;2022-12-18T14:57:02;27.03;;;13.13;;
4397;SDS011;2213;49.720;7.296;2022-12-18T14:59:35;31.37;;;12.83;;
4397;SDS011;2213;49.720;7.296;2022-12-18T15:02:04;26.77;;;13.43;;
4397;SDS011;2213;49.720;7.296;2022-12-18T15:04:53;24.83;;;12.07;;
4397;SDS011;2213;49.720;7.296;2022-12-18T15:07:39;34.93;;;12.80;;
4397;SDS011;2213;49.720;7.296;2022-12-18T15:10:12;25.37;;;11.87;;
4397;SDS011;2213;49.720;7.296;2022-12-18T15:12:46;30.13;;;12.37;;
4397;SDS011;2213;49.720;7.296;2022-12-18T15:18:14;28.30;;;12.57;;
4397;SDS011;2213;49.720;7.296;2022-12-18T15:20:50;25.33;;;13.07;;
4397;SDS011;2213;49.720;7.296;2022-12-18T15:23:24;25.43;;;13.63;;
4397;SDS011;2213;49.720;7.296;2022-12-18T15:25:58;33.13;;;13.80;;
4397;SDS011;2213;49.720;7.296;2022-12-18T15:28:35;26.00;;;12.87;;
4397;SDS011;2213;49.720;7.296;2022-12-18T15:34:13;22.90;;;12.10;;
4397;SDS011;2213;49.720;7.296;2022-12-18T15:36:49;23.97;;;12.70;;
4397;SDS011;2213;49.720;7.296;2022-12-18T15:39:18;27.00;;;13.40;;
4397;SDS011;2213;49.720;7.296;2022-12-18T15:41:49;28.37;;;13.10;;
4397;SDS011;2213;49.720;7.296;2022-12-18T15:44:37;28.87;;;13.47;;
4397;SDS011;2213;49.720;7.296;2022-12-18T15:47:09;24.80;;;12.93;;
4397;SDS011;2213;49.720;7.296;2022-12-18T15:49:41;27.97;;;13.00;;
4397;SDS011;2213;49.720;7.296;2022-12-18T15:52:10;34.67;;;14.27;;
4397;SDS011;2213;49.720;7.296;2022-12-18T15:54:53;27.70;;;13.30;;
4397;SDS011;2213;49.720;7.296;2022-12-18T15:57:40;25.93;;;13.10;;
4397;SDS011;2213;49.720;7.296;2022-12-18T16:00:12;26.97;;;13.93;;
4397;SDS011;2213;49.720;7.296;2022-12-18T16:02:44;27.10;;;12.97;;